CheckWX is a tool to help pilots better visualize weather data.  It is not intended as a substitute for an official pre-flight weather briefing.

02:58:40 UTC

CYQV METAR
Yorkton Municipal Airport
Yorkton, Canada
Current

59 mins ago

CYQV 190200Z AUTO 14006KT 9SM CLR 21/06 A2991 RMK SLP132 DENSITY ALT 2700FT
Observed
Jun-19 @ 02:00 UTC
Wind
  • 140° at 6 KTS
Visibility
9 SM
Flight Rules
VFR
Cloud Levels
  • Clear skies
Temperature
21°C / 70°F
Dewpoint
C / 43°F
Humidity
38%
Altimeter
29.91" Hg
Pressure
1012.92 hPa
Previous

2 hours ago

CYQV 190100Z AUTO 13006KT 9SM CLR 23/05 A2990 RMK SLP132 DENSITY ALT 2900FT
Observed
Jun-19 @ 01:00 UTC
Wind
  • 130° at 6 KTS
Visibility
9 SM
Flight Rules
VFR
Cloud Levels
  • Clear skies
Temperature
23°C / 73°F
Dewpoint
C / 41°F
Humidity
31%
Altimeter
29.9" Hg
Pressure
1012.52 hPa
Previous

3 hours ago

CYQV 190000Z AUTO VRB02KT 9SM CLR 23/05 A2991 RMK SLP134 DENSITY ALT 2900FT
Observed
Jun-19 @ 00:00 UTC
Wind
  • Variable at 2 KTS
Visibility
9 SM
Flight Rules
VFR
Cloud Levels
  • Clear skies
Temperature
23°C / 73°F
Dewpoint
C / 41°F
Humidity
31%
Altimeter
29.91" Hg
Pressure
1012.92 hPa